Terminal Aerodrome Forecast
Issued by NWS Charleston, WV

Current Version | Previous Version | Text Only | Print | Product List | Glossary Off
Versions: 1 2 3 4 5 6 7 8 9 10 11 12 13 14 15 16 17 18 19 20 21 22 23 24 25 26 27 28 29

000
FTUS41 KRLX 181100
TAFCRW
TAF
KCRW 181126Z 1812/1912 14006KT 2SM +SHRA BR BKN001 BKN007
     FM181400 16006KT 3SM +SHRA BR SCT008 OVC025
     FM181700 20005KT 3SM +SHRA BR VCTS OVC010CB
     FM182200 VRB03KT 6SM BR VCTS BKN025CB
     FM190200 22004KT 4SM BR VCTS BKN025CB
     FM190500 VRB03KT 2SM BR BKN015=

USA.gov is the U.S. government's official web portal to all federal, state and local government web resources and services.